createdAt,value
2018-07-20T00:01:14.240Z,17.40
2018-07-20T00:03:43.101Z,17.40
2018-07-20T00:06:12.000Z,17.40
2018-07-20T00:08:40.852Z,17.30
2018-07-20T00:11:09.692Z,17.30
2018-07-20T00:13:38.723Z,17.30
2018-07-20T00:16:07.577Z,17.30
2018-07-20T00:18:36.399Z,17.30
2018-07-20T00:21:05.340Z,17.20
2018-07-20T00:23:34.160Z,17.30
2018-07-20T00:26:03.024Z,17.20
2018-07-20T00:28:31.863Z,17.20
2018-07-20T00:31:00.752Z,17.10
2018-07-20T00:33:29.605Z,17.10
2018-07-20T00:35:58.482Z,17.10
2018-07-20T00:38:27.274Z,17.10
2018-07-20T00:40:56.135Z,17.10
2018-07-20T00:43:24.960Z,17.00
2018-07-20T00:45:53.755Z,17.00
2018-07-20T00:48:22.632Z,17.00
2018-07-20T00:50:51.460Z,16.90
2018-07-20T00:53:20.280Z,16.90
2018-07-20T00:55:49.102Z,16.90
2018-07-20T00:58:17.965Z,16.90
2018-07-20T01:00:46.782Z,16.90
2018-07-20T01:03:15.640Z,16.80
2018-07-20T01:05:44.514Z,16.80
2018-07-20T01:08:13.433Z,16.80
2018-07-20T01:10:42.310Z,16.80
2018-07-20T01:13:11.124Z,16.80
2018-07-20T01:15:39.951Z,16.80
2018-07-20T01:18:08.778Z,16.80
2018-07-20T01:20:37.669Z,16.80
2018-07-20T01:23:06.563Z,16.70
2018-07-20T01:25:35.449Z,16.70
2018-07-20T01:28:04.313Z,16.70
2018-07-20T01:30:33.164Z,16.60
2018-07-20T01:33:02.051Z,16.60
2018-07-20T01:35:30.870Z,16.50
2018-07-20T01:37:59.748Z,16.40
2018-07-20T01:40:28.670Z,16.30
2018-07-20T01:42:57.581Z,16.30
2018-07-20T01:45:26.437Z,16.20
2018-07-20T01:47:55.304Z,16.20
2018-07-20T01:50:24.142Z,16.10
2018-07-20T01:52:52.968Z,16.10
2018-07-20T01:55:21.826Z,16.00
2018-07-20T01:57:50.647Z,16.10
2018-07-20T02:00:19.464Z,16.10
2018-07-20T02:02:48.325Z,16.00
2018-07-20T02:05:17.175Z,16.00
2018-07-20T02:07:46.023Z,16.00
2018-07-20T02:10:14.818Z,15.90
2018-07-20T02:12:43.652Z,16.00
2018-07-20T02:15:12.470Z,16.10
2018-07-20T02:17:41.303Z,16.00
2018-07-20T02:20:10.123Z,15.90
2018-07-20T02:22:38.956Z,15.90
2018-07-20T02:25:07.777Z,15.90
2018-07-20T02:27:36.624Z,15.90
2018-07-20T02:30:06.428Z,16.00
2018-07-20T02:32:35.279Z,16.00
2018-07-20T02:35:04.139Z,16.10
2018-07-20T02:37:33.001Z,16.00
2018-07-20T02:40:01.822Z,16.00
2018-07-20T02:42:30.676Z,16.00
2018-07-20T02:44:59.516Z,16.00
2018-07-20T02:47:28.370Z,16.00
2018-07-20T02:49:57.227Z,15.80
2018-07-20T02:52:26.138Z,15.80
2018-07-20T02:54:54.943Z,15.80
2018-07-20T02:57:23.739Z,15.90
2018-07-20T02:59:52.620Z,15.90
2018-07-20T03:02:21.462Z,15.80
2018-07-20T03:04:50.266Z,15.90
2018-07-20T03:07:19.140Z,15.80
2018-07-20T03:09:47.992Z,15.80
2018-07-20T03:12:16.807Z,15.80
2018-07-20T03:14:45.685Z,15.80
2018-07-20T03:17:14.559Z,15.90
2018-07-20T03:19:43.435Z,15.90
2018-07-20T03:22:12.307Z,15.90
2018-07-20T03:24:41.188Z,15.80
2018-07-20T03:27:10.114Z,15.80
2018-07-20T03:29:38.981Z,15.70
2018-07-20T03:32:07.816Z,15.80
2018-07-20T03:34:36.653Z,15.80
2018-07-20T03:37:05.535Z,15.80
2018-07-20T03:39:34.442Z,15.90
2018-07-20T03:42:03.306Z,15.90
2018-07-20T03:44:32.160Z,16.00
2018-07-20T03:47:00.988Z,16.00
2018-07-20T03:49:30.027Z,16.10
2018-07-20T03:51:58.911Z,16.10
2018-07-20T03:54:27.744Z,16.10
2018-07-20T03:56:56.571Z,16.20
2018-07-20T03:59:25.431Z,16.20
2018-07-20T04:01:54.270Z,16.30
2018-07-20T04:04:23.141Z,16.30
2018-07-20T04:06:52.036Z,16.30
2018-07-20T04:09:20.929Z,16.50
2018-07-20T04:11:49.767Z,16.50
2018-07-20T04:14:18.627Z,16.40
2018-07-20T04:16:47.488Z,16.60
2018-07-20T04:19:16.377Z,16.70
2018-07-20T04:21:45.211Z,16.80
2018-07-20T04:24:14.192Z,16.90
2018-07-20T04:26:43.076Z,17.00
2018-07-20T04:29:11.938Z,17.10
2018-07-20T04:31:40.756Z,17.20
2018-07-20T04:34:09.632Z,17.30
2018-07-20T04:36:38.484Z,17.40
2018-07-20T04:39:11.100Z,17.50
2018-07-20T04:41:40.263Z,17.50
2018-07-20T04:44:09.137Z,17.60
2018-07-20T04:46:38.166Z,17.60
2018-07-20T04:49:06.963Z,17.80
2018-07-20T04:51:35.798Z,17.90
2018-07-20T04:54:05.223Z,18.00
2018-07-20T04:56:34.073Z,18.10
2018-07-20T04:59:02.875Z,18.20
2018-07-20T05:01:31.760Z,18.30
2018-07-20T05:04:00.584Z,18.50
2018-07-20T05:06:29.440Z,18.70
2018-07-20T05:08:58.282Z,18.90
2018-07-20T05:11:27.120Z,19.00
2018-07-20T05:13:55.933Z,19.10
2018-07-20T05:16:24.816Z,19.20
2018-07-20T05:18:53.639Z,19.30
2018-07-20T05:21:22.492Z,19.30
2018-07-20T05:23:51.389Z,19.30
2018-07-20T05:26:20.244Z,19.50
2018-07-20T05:28:49.066Z,19.60
2018-07-20T05:31:17.990Z,19.70
2018-07-20T05:33:46.786Z,19.80
2018-07-20T05:36:15.689Z,20.00
2018-07-20T05:38:44.486Z,20.20
2018-07-20T05:41:13.412Z,20.30
2018-07-20T05:43:42.291Z,20.40
2018-07-20T05:46:11.161Z,20.40
2018-07-20T05:48:40.054Z,20.60
2018-07-20T05:51:08.858Z,20.80
2018-07-20T05:53:37.700Z,20.90
2018-07-20T05:56:06.568Z,21.00
2018-07-20T05:58:35.416Z,21.00
2018-07-20T06:01:04.262Z,21.20
2018-07-20T06:03:33.149Z,21.30
2018-07-20T06:06:02.852Z,21.50
2018-07-20T06:08:31.667Z,21.70
2018-07-20T06:11:00.523Z,21.90
2018-07-20T06:13:29.382Z,22.00
2018-07-20T06:15:58.245Z,22.10
2018-07-20T06:18:27.189Z,22.30
2018-07-20T06:20:56.032Z,22.40
2018-07-20T06:23:25.124Z,22.50
2018-07-20T06:25:54.010Z,22.80
2018-07-20T06:28:22.852Z,22.90
2018-07-20T06:30:51.674Z,23.10
2018-07-20T06:33:20.499Z,23.20
2018-07-20T06:35:49.298Z,23.30
2018-07-20T06:38:18.132Z,23.30
2018-07-20T06:40:47.025Z,23.20
2018-07-20T06:43:15.827Z,23.20
2018-07-20T06:45:44.692Z,23.20
2018-07-20T06:48:13.552Z,23.30
2018-07-20T06:50:42.420Z,23.30
2018-07-20T06:53:11.221Z,23.40
2018-07-20T06:55:40.069Z,23.50
2018-07-20T06:58:08.895Z,23.50
2018-07-20T07:00:37.725Z,23.70
2018-07-20T07:03:06.690Z,23.80
2018-07-20T07:05:35.563Z,23.90
2018-07-20T07:08:04.392Z,23.80
2018-07-20T07:10:33.228Z,23.90
2018-07-20T07:13:02.047Z,23.80
2018-07-20T07:15:30.877Z,23.90
2018-07-20T07:17:59.735Z,23.90
2018-07-20T07:20:28.584Z,24.00
2018-07-20T07:22:57.436Z,24.00
2018-07-20T07:25:26.262Z,24.00
2018-07-20T07:27:55.059Z,24.10
2018-07-20T07:30:23.908Z,24.20
2018-07-20T07:32:52.764Z,24.20
2018-07-20T07:35:21.617Z,24.20
2018-07-20T07:37:50.472Z,24.30
2018-07-20T07:40:19.280Z,24.40
2018-07-20T07:42:48.156Z,24.60
2018-07-20T07:45:17.041Z,24.60
2018-07-20T07:47:45.904Z,24.70
2018-07-20T07:50:14.693Z,24.70
2018-07-20T07:52:43.565Z,24.70
2018-07-20T07:55:12.362Z,24.60
2018-07-20T07:57:41.247Z,24.60
2018-07-20T08:00:10.128Z,24.70
2018-07-20T08:02:38.916Z,24.80
2018-07-20T08:05:07.744Z,24.90
2018-07-20T08:07:36.587Z,25.20
2018-07-20T08:10:05.833Z,25.10
2018-07-20T08:12:34.553Z,25.10
2018-07-20T08:15:03.418Z,25.10
2018-07-20T08:17:32.272Z,25.20
2018-07-20T08:20:01.121Z,25.20
2018-07-20T08:22:30.025Z,25.10
2018-07-20T08:27:27.540Z,25.00
2018-07-20T08:29:56.380Z,25.00
2018-07-20T08:32:25.302Z,25.20
2018-07-20T08:34:54.114Z,25.30
2018-07-20T08:37:22.973Z,25.40
2018-07-20T08:39:51.885Z,25.60
2018-07-20T08:42:20.721Z,25.60
2018-07-20T08:44:49.530Z,25.60
2018-07-20T08:47:18.392Z,25.50
2018-07-20T08:49:47.335Z,25.40
2018-07-20T08:52:16.159Z,25.50
2018-07-20T08:54:45.061Z,25.50
2018-07-20T08:57:13.972Z,25.60
2018-07-20T08:59:42.799Z,25.60
2018-07-20T09:02:11.845Z,25.50
2018-07-20T09:04:40.696Z,25.40
2018-07-20T09:07:09.539Z,25.50
2018-07-20T09:09:38.397Z,25.30
2018-07-20T09:12:07.248Z,25.30
2018-07-20T09:14:36.036Z,25.20
2018-07-20T09:17:04.885Z,25.50
2018-07-20T09:19:33.753Z,25.50
2018-07-20T09:22:03.091Z,25.80
2018-07-20T09:24:32.091Z,25.90
2018-07-20T09:27:00.947Z,26.10
2018-07-20T09:29:29.836Z,26.10
2018-07-20T09:34:27.344Z,26.20
2018-07-20T09:36:56.240Z,26.30
2018-07-20T09:39:25.040Z,26.30
2018-07-20T09:41:53.920Z,26.30
2018-07-20T09:44:22.813Z,26.40
2018-07-20T09:46:51.615Z,26.40
2018-07-20T09:49:20.420Z,26.40
2018-07-20T09:51:49.321Z,26.40
2018-07-20T09:54:18.110Z,26.40
2018-07-20T09:56:46.909Z,26.60
2018-07-20T09:59:15.756Z,26.70
2018-07-20T10:01:44.677Z,26.80
2018-07-20T10:04:13.499Z,26.90
2018-07-20T10:06:42.291Z,27.00
2018-07-20T10:09:12.524Z,26.90
2018-07-20T10:11:41.463Z,26.90
2018-07-20T10:14:10.334Z,27.20
2018-07-20T10:16:39.144Z,27.40
2018-07-20T10:19:08.042Z,27.50
2018-07-20T10:21:37.109Z,27.40
2018-07-20T10:24:05.978Z,27.60
2018-07-20T10:26:34.865Z,27.80
2018-07-20T10:29:04.657Z,27.40
2018-07-20T10:31:33.592Z,27.60
2018-07-20T10:34:02.386Z,27.90
2018-07-20T10:36:31.263Z,27.90
2018-07-20T10:39:00.158Z,28.00
2018-07-20T10:41:29.003Z,28.20
2018-07-20T10:43:57.906Z,28.30
2018-07-20T10:46:26.718Z,28.70
2018-07-20T10:48:55.605Z,28.90
2018-07-20T10:51:24.475Z,29.40
2018-07-20T10:53:53.429Z,29.70
2018-07-20T10:56:22.318Z,30.20
2018-07-20T10:58:51.373Z,30.30
2018-07-20T11:01:20.220Z,30.50
2018-07-20T11:03:49.037Z,31.10
2018-07-20T11:06:17.860Z,31.60
2018-07-20T11:08:46.784Z,31.90
2018-07-20T11:11:15.578Z,31.70
2018-07-20T11:13:44.444Z,31.90
2018-07-20T11:16:13.324Z,32.00
2018-07-20T11:18:42.159Z,32.30
2018-07-20T11:21:11.017Z,32.50
2018-07-20T11:23:39.905Z,32.70
2018-07-20T11:28:37.874Z,33.60
2018-07-20T11:31:06.719Z,33.50
2018-07-20T11:33:35.594Z,33.70
2018-07-20T11:36:04.414Z,34.00
2018-07-20T11:38:33.341Z,33.90
2018-07-20T11:41:02.256Z,34.80
2018-07-20T11:43:31.108Z,35.40
2018-07-20T11:45:59.906Z,35.40
2018-07-20T11:48:28.740Z,35.80
2018-07-20T11:50:57.598Z,36.30
2018-07-20T11:53:26.485Z,37.20
2018-07-20T11:55:55.334Z,38.10
2018-07-20T11:58:24.213Z,38.80
2018-07-20T12:00:53.040Z,39.10
2018-07-20T12:03:21.866Z,39.10
2018-07-20T12:05:50.728Z,40.40
2018-07-20T12:08:19.545Z,40.60
2018-07-20T12:10:48.335Z,40.10
2018-07-20T12:13:17.210Z,41.10
2018-07-20T12:15:46.248Z,41.10
2018-07-20T12:18:15.076Z,40.40
2018-07-20T12:20:43.948Z,39.30
2018-07-20T12:23:12.771Z,38.10
2018-07-20T12:25:41.603Z,37.00
2018-07-20T12:28:10.444Z,36.00
2018-07-20T12:30:39.319Z,35.90
2018-07-20T12:33:08.211Z,36.70
2018-07-20T12:35:37.178Z,35.80
2018-07-20T12:38:06.515Z,35.20
2018-07-20T12:40:35.509Z,34.60
2018-07-20T12:43:04.340Z,35.50
2018-07-20T12:45:33.251Z,36.40
2018-07-20T12:48:02.363Z,36.20
2018-07-20T12:50:31.439Z,37.70
2018-07-20T12:53:00.384Z,40.00
2018-07-20T12:55:29.219Z,42.30
2018-07-20T12:57:58.076Z,44.50
2018-07-20T13:00:26.915Z,45.20
2018-07-20T13:02:55.737Z,45.40
2018-07-20T13:05:24.580Z,45.60
2018-07-20T13:07:53.366Z,45.20
2018-07-20T13:12:50.910Z,47.00
2018-07-20T13:15:19.740Z,49.10
2018-07-20T13:17:49.343Z,50.80
2018-07-20T13:20:18.198Z,51.90
2018-07-20T13:22:47.036Z,50.70
2018-07-20T13:25:15.830Z,51.80
2018-07-20T13:27:44.670Z,53.10
2018-07-20T13:30:13.490Z,54.00
2018-07-20T13:32:42.384Z,53.40
2018-07-20T13:35:11.308Z,51.60
2018-07-20T13:37:40.161Z,51.70
2018-07-20T13:40:09.055Z,51.40
2018-07-20T13:42:37.897Z,51.00
2018-07-20T13:45:08.019Z,51.00
2018-07-20T13:47:36.913Z,51.70
2018-07-20T13:50:06.343Z,52.00
2018-07-20T13:52:35.370Z,51.00
2018-07-20T13:55:04.432Z,50.90
2018-07-20T13:57:33.275Z,50.50
2018-07-20T14:00:02.100Z,49.80
2018-07-20T14:02:30.990Z,50.20
2018-07-20T14:04:59.887Z,50.70
2018-07-20T14:07:28.711Z,49.70
2018-07-20T14:09:57.490Z,49.30
2018-07-20T14:12:26.389Z,50.70
2018-07-20T14:14:55.269Z,50.90
2018-07-20T14:17:24.092Z,50.00
2018-07-20T14:19:52.957Z,48.70
2018-07-20T14:22:21.804Z,49.50
2018-07-20T14:24:50.667Z,50.30
2018-07-20T14:27:19.536Z,50.60
2018-07-20T14:29:48.327Z,51.50
2018-07-20T14:32:17.160Z,51.80
2018-07-20T14:34:46.069Z,52.40
2018-07-20T14:37:14.915Z,53.20
2018-07-20T14:39:43.707Z,54.10
2018-07-20T14:42:12.527Z,55.00
2018-07-20T14:44:41.367Z,55.10
2018-07-20T14:47:10.183Z,54.70
2018-07-20T14:49:39.028Z,54.20
2018-07-20T14:52:08.053Z,53.60
2018-07-20T14:54:36.957Z,52.70
2018-07-20T14:57:05.804Z,52.70
2018-07-20T14:59:34.623Z,52.40
2018-07-20T15:02:03.532Z,52.60
2018-07-20T15:04:32.410Z,52.00
2018-07-20T15:07:01.195Z,50.50
2018-07-20T15:09:30.081Z,48.60
2018-07-20T15:11:58.996Z,47.60
2018-07-20T15:14:27.831Z,48.00
2018-07-20T15:16:56.685Z,49.40
2018-07-20T15:19:25.532Z,50.40
2018-07-20T15:21:54.443Z,51.30
2018-07-20T15:24:23.320Z,52.30
2018-07-20T15:26:52.152Z,51.90
2018-07-20T15:29:21.041Z,52.30
2018-07-20T15:31:49.915Z,51.50
2018-07-20T15:34:18.790Z,52.20
2018-07-20T15:36:47.661Z,52.80
2018-07-20T15:39:16.516Z,52.10
2018-07-20T15:41:45.379Z,52.50
2018-07-20T15:44:14.185Z,52.10
2018-07-20T15:46:43.149Z,52.20
2018-07-20T15:49:11.926Z,52.50
2018-07-20T15:53:35.206Z,52.70
2018-07-20T15:54:09.682Z,53.00
2018-07-20T15:56:38.526Z,52.80
2018-07-20T15:59:07.404Z,53.30
2018-07-20T16:01:36.258Z,53.60
2018-07-20T16:04:05.128Z,53.70
2018-07-20T16:06:33.976Z,53.30
2018-07-20T16:09:02.795Z,51.80
2018-07-20T16:11:31.631Z,51.20
2018-07-20T16:14:00.518Z,50.80
2018-07-20T16:16:29.371Z,50.10
2018-07-20T16:18:58.225Z,50.20
2018-07-20T16:21:27.043Z,50.40
2018-07-20T16:23:55.887Z,50.30
2018-07-20T16:26:24.743Z,50.40
2018-07-20T16:28:53.597Z,50.60
2018-07-20T16:31:22.469Z,50.10
2018-07-20T16:33:51.364Z,50.60
2018-07-20T16:36:20.187Z,50.40
2018-07-20T16:38:49.017Z,49.90
2018-07-20T16:41:17.900Z,49.60
2018-07-20T16:43:46.783Z,49.50
2018-07-20T16:46:15.627Z,49.20
2018-07-20T16:48:44.658Z,49.10
2018-07-20T16:51:13.483Z,48.40
2018-07-20T16:53:42.290Z,47.80
2018-07-20T16:56:11.074Z,47.30
2018-07-20T16:58:39.961Z,46.50
2018-07-20T17:01:09.326Z,45.90
2018-07-20T17:03:38.143Z,45.50
2018-07-20T17:06:07.040Z,44.50
2018-07-20T17:08:35.884Z,43.40
2018-07-20T17:11:04.688Z,43.10
2018-07-20T17:13:33.509Z,42.20
2018-07-20T17:16:02.371Z,41.80
2018-07-20T17:18:31.191Z,41.70
2018-07-20T17:20:59.979Z,41.50
2018-07-20T17:23:28.871Z,41.50
2018-07-20T17:25:57.727Z,41.40
2018-07-20T17:28:26.592Z,40.90
2018-07-20T17:30:55.480Z,40.40
2018-07-20T17:33:24.422Z,40.20
2018-07-20T17:35:53.251Z,40.00
2018-07-20T17:38:22.256Z,39.50
2018-07-20T17:40:51.106Z,38.70
2018-07-20T17:43:19.935Z,38.00
2018-07-20T17:45:48.799Z,37.20
2018-07-20T17:48:17.647Z,36.80
2018-07-20T17:50:46.458Z,36.60
2018-07-20T17:53:15.317Z,36.60
2018-07-20T17:55:44.135Z,36.50
2018-07-20T17:58:13.013Z,36.50
2018-07-20T18:00:41.875Z,36.50
2018-07-20T18:03:10.768Z,36.20
2018-07-20T18:05:39.594Z,36.10
2018-07-20T18:08:08.444Z,35.70
2018-07-20T18:10:37.267Z,35.60
2018-07-20T18:13:06.088Z,35.10
2018-07-20T18:15:34.950Z,34.60
2018-07-20T18:18:03.767Z,33.80
2018-07-20T18:23:02.429Z,32.50
2018-07-20T18:25:31.317Z,32.00
2018-07-20T18:30:28.847Z,31.00
2018-07-20T18:32:57.721Z,30.50
2018-07-20T18:35:26.543Z,29.90
2018-07-20T18:37:55.392Z,29.60
2018-07-20T18:40:24.215Z,29.30
2018-07-20T18:42:53.062Z,28.70
2018-07-20T18:45:21.955Z,28.40
2018-07-20T18:47:50.811Z,28.00
2018-07-20T18:50:19.664Z,27.50
2018-07-20T18:52:48.503Z,27.20
2018-07-20T18:55:17.352Z,26.80
2018-07-20T18:57:46.237Z,26.60
2018-07-20T19:00:15.080Z,26.40
2018-07-20T19:02:43.871Z,26.20
2018-07-20T19:05:12.716Z,26.00
2018-07-20T19:07:41.498Z,25.80
2018-07-20T19:10:10.356Z,25.60
2018-07-20T19:12:39.117Z,25.40
2018-07-20T19:15:07.975Z,25.30
2018-07-20T19:17:36.844Z,25.10
2018-07-20T19:20:05.915Z,24.90
2018-07-20T19:22:34.789Z,24.70
2018-07-20T19:25:03.649Z,24.50
2018-07-20T19:27:32.549Z,24.40
2018-07-20T19:30:01.409Z,24.20
2018-07-20T19:32:30.289Z,24.10
2018-07-20T19:34:59.187Z,23.90
2018-07-20T19:37:28.016Z,23.80
2018-07-20T19:39:56.917Z,23.70
2018-07-20T19:42:25.746Z,23.60
2018-07-20T19:44:54.568Z,23.60
2018-07-20T19:47:23.408Z,23.50
2018-07-20T19:49:52.239Z,23.40
2018-07-20T19:52:21.111Z,23.30
2018-07-20T19:54:49.976Z,23.20
2018-07-20T19:57:18.826Z,23.10
2018-07-20T19:59:47.680Z,23.00
2018-07-20T20:02:16.486Z,22.90
2018-07-20T20:04:45.360Z,22.80
2018-07-20T20:07:14.226Z,22.80
2018-07-20T20:09:43.028Z,22.70
2018-07-20T20:12:11.872Z,22.60
2018-07-20T20:14:40.805Z,22.50
2018-07-20T20:17:09.623Z,22.40
2018-07-20T20:19:38.483Z,22.40
2018-07-20T20:22:07.658Z,22.30
2018-07-20T20:24:36.536Z,22.30
2018-07-20T20:27:05.600Z,22.20
2018-07-20T20:29:34.478Z,22.20
2018-07-20T20:32:03.326Z,22.10
2018-07-20T20:34:32.212Z,22.10
2018-07-20T20:37:01.032Z,22.00
2018-07-20T20:39:29.822Z,22.00
2018-07-20T20:41:58.662Z,22.00
2018-07-20T20:44:27.510Z,21.90
2018-07-20T20:46:56.360Z,21.80
2018-07-20T20:49:25.210Z,21.80
2018-07-20T20:51:54.146Z,21.80
2018-07-20T20:54:22.968Z,21.70
2018-07-20T20:56:51.789Z,21.60
2018-07-20T20:59:21.065Z,21.60
2018-07-20T21:01:50.008Z,21.50
2018-07-20T21:04:18.892Z,21.50
2018-07-20T21:06:47.712Z,21.40
2018-07-20T21:09:16.572Z,21.40
2018-07-20T21:11:45.442Z,21.30
2018-07-20T21:14:14.243Z,21.30
2018-07-20T21:16:43.037Z,21.30
2018-07-20T21:19:11.891Z,21.20
2018-07-20T21:21:40.758Z,21.20
2018-07-20T21:24:09.611Z,21.10
2018-07-20T21:26:38.438Z,21.10
2018-07-20T21:29:07.396Z,21.10
2018-07-20T21:31:36.206Z,21.00
2018-07-20T21:34:05.156Z,21.00
2018-07-20T21:36:34.060Z,20.90
2018-07-20T21:39:03.073Z,20.90
2018-07-20T21:41:31.867Z,20.80
2018-07-20T21:44:00.686Z,20.80
2018-07-20T21:46:29.616Z,20.80
2018-07-20T21:48:58.480Z,20.70
2018-07-20T21:51:27.314Z,20.60
2018-07-20T21:53:56.138Z,20.60
2018-07-20T21:56:24.956Z,20.50
2018-07-20T21:58:53.816Z,20.50
2018-07-20T22:01:22.701Z,20.40
2018-07-20T22:03:51.565Z,20.40
2018-07-20T22:06:20.496Z,20.30
2018-07-20T22:08:49.453Z,20.30
2018-07-20T22:11:18.341Z,20.20
2018-07-20T22:13:47.180Z,20.10
2018-07-20T22:16:16.090Z,20.10
2018-07-20T22:18:44.949Z,20.00
2018-07-20T22:21:13.828Z,19.90
2018-07-20T22:23:42.701Z,19.90
2018-07-20T22:26:11.585Z,19.90
2018-07-20T22:28:40.411Z,19.80
2018-07-20T22:31:09.263Z,19.80
2018-07-20T22:33:38.156Z,19.80
2018-07-20T22:36:07.038Z,19.80
2018-07-20T22:38:35.868Z,19.70
2018-07-20T22:41:04.812Z,19.70
2018-07-20T22:43:33.752Z,19.60
2018-07-20T22:46:02.723Z,19.60
2018-07-20T22:48:31.571Z,19.60
2018-07-20T22:51:00.392Z,19.60
2018-07-20T22:53:29.294Z,19.60
2018-07-20T22:55:58.131Z,19.50
2018-07-20T22:58:26.934Z,19.50
2018-07-20T23:00:55.725Z,19.50
2018-07-20T23:03:24.572Z,19.40
2018-07-20T23:05:53.496Z,19.40
2018-07-20T23:08:22.465Z,19.40
2018-07-20T23:10:51.331Z,19.40
2018-07-20T23:13:20.129Z,19.40
2018-07-20T23:15:48.980Z,19.30
2018-07-20T23:18:17.823Z,19.30
2018-07-20T23:20:46.697Z,19.30
2018-07-20T23:23:15.504Z,19.20
2018-07-20T23:25:44.392Z,19.20
2018-07-20T23:28:13.265Z,19.10
2018-07-20T23:30:42.113Z,19.10
2018-07-20T23:33:10.985Z,19.10
2018-07-20T23:35:39.859Z,19.00
2018-07-20T23:38:08.718Z,19.00
2018-07-20T23:40:37.575Z,19.00
2018-07-20T23:43:06.455Z,19.00
2018-07-20T23:45:35.284Z,18.90
2018-07-20T23:48:04.153Z,18.90
2018-07-20T23:50:33.007Z,18.80
2018-07-20T23:53:04.845Z,18.90
2018-07-20T23:55:33.708Z,18.90
2018-07-20T23:58:02.598Z,18.80
